Idaho, Ohio
Current Conditions -  °F | °C
As of 12:14 PM on Thursday 30 Oct 2014 (Local Time) from KRZT Reporting Station
Overcast Overcast  
Wind Chill: 46°   Ceiling: 4000
Heat Index: 46°   Visibility: 10mi
Dew Point: 32°   Wind: 3mph
Humidity: 57%   Direction: 20°NNE
Pressure: 30.16"   Gusts: NA
Location:  39.0491°N, 83.1454°W
Report Text: KRZT 301614Z AUTO 02003KT 10SM OVC040 08/00 A3016 RMK AO2
Loading
Personal Weather Stations






























Interactive Weather Map
Tropical Storm Tracking
New forecast layout! Learn more

10-Day Weather Forecast

Advertisements
Track Severe Weather on mobile